createdAt,value
2023-02-22T00:01:02.959Z,5.03
2023-02-22T00:03:35.034Z,4.99
2023-02-22T00:06:05.604Z,5.07
2023-02-22T00:08:35.065Z,5.09
2023-02-22T00:11:04.455Z,5.03
2023-02-22T00:13:31.202Z,5.02
2023-02-22T00:15:59.095Z,5.00
2023-02-22T00:18:29.588Z,4.92
2023-02-22T00:21:01.137Z,4.94
2023-02-22T00:23:29.941Z,4.89
2023-02-22T00:25:58.449Z,4.87
2023-02-22T00:28:25.631Z,4.85
2023-02-22T00:30:54.834Z,4.88
2023-02-22T00:33:22.746Z,4.85
2023-02-22T00:35:49.720Z,4.77
2023-02-22T00:38:18.609Z,4.67
2023-02-22T00:40:45.578Z,4.68
2023-02-22T00:43:12.876Z,4.66
2023-02-22T00:45:41.290Z,4.59
2023-02-22T00:48:09.268Z,4.50
2023-02-22T00:50:36.535Z,4.50
2023-02-22T00:53:05.116Z,4.57
2023-02-22T00:55:35.190Z,4.59
2023-02-22T00:58:02.390Z,4.55
2023-02-22T01:00:41.704Z,4.54
2023-02-22T01:03:11.021Z,4.53
2023-02-22T01:05:40.773Z,4.45
2023-02-22T01:08:09.770Z,4.41
2023-02-22T01:10:38.053Z,4.46
2023-02-22T01:13:09.002Z,4.37
2023-02-22T01:15:37.842Z,4.35
2023-02-22T01:18:05.607Z,4.36
2023-02-22T01:20:32.745Z,4.35
2023-02-22T01:23:00.973Z,4.32
2023-02-22T01:25:30.711Z,4.33
2023-02-22T01:27:59.533Z,4.30
2023-02-22T01:30:30.488Z,4.34
2023-02-22T01:32:57.259Z,4.35
2023-02-22T01:35:27.992Z,4.39
2023-02-22T01:37:55.804Z,4.40
2023-02-22T01:40:26.181Z,4.48
2023-02-22T01:42:55.604Z,4.54
2023-02-22T01:45:31.360Z,4.54
2023-02-22T01:48:09.212Z,4.51
2023-02-22T01:50:43.600Z,4.50
2023-02-22T01:53:16.275Z,4.39
2023-02-22T01:55:44.522Z,4.34
2023-02-22T01:58:12.270Z,4.24
2023-02-22T02:00:40.093Z,4.31
2023-02-22T02:03:11.835Z,4.26
2023-02-22T02:05:39.097Z,4.27
2023-02-22T02:08:16.865Z,4.21
2023-02-22T02:10:44.327Z,4.11
2023-02-22T02:13:11.295Z,4.12
2023-02-22T02:15:38.140Z,4.12
2023-02-22T02:18:09.117Z,4.08
2023-02-22T02:20:40.755Z,4.10
2023-02-22T02:23:29.079Z,4.19
2023-02-22T02:26:14.571Z,4.23
2023-02-22T02:29:00.125Z,4.21
2023-02-22T02:31:50.973Z,4.15
2023-02-22T02:34:21.918Z,4.12
2023-02-22T02:37:06.466Z,4.06
2023-02-22T02:39:44.538Z,4.04
2023-02-22T02:42:15.611Z,3.96
2023-02-22T02:44:49.803Z,3.97
2023-02-22T02:47:26.945Z,3.91
2023-02-22T02:50:13.695Z,3.89
2023-02-22T02:52:41.593Z,3.86
2023-02-22T02:55:11.331Z,3.91
2023-02-22T02:57:41.476Z,3.85
2023-02-22T03:00:24.230Z,3.85
2023-02-22T03:03:02.742Z,3.90
2023-02-22T03:05:39.343Z,3.86
2023-02-22T03:08:25.491Z,3.85
2023-02-22T03:11:01.739Z,3.84
2023-02-22T03:14:11.766Z,3.95
2023-02-22T03:17:00.585Z,4.35
2023-02-22T03:19:35.503Z,4.72
2023-02-22T03:22:20.709Z,4.95
2023-02-22T03:24:55.709Z,4.96
2023-02-22T03:27:32.112Z,5.00
2023-02-22T03:30:05.461Z,5.18
2023-02-22T03:32:37.617Z,5.38
2023-02-22T03:35:28.389Z,5.49
2023-02-22T03:38:00.447Z,5.53
2023-02-22T03:40:35.135Z,5.48
2023-02-22T03:43:10.224Z,5.50
2023-02-22T03:45:43.550Z,5.46
2023-02-22T03:48:19.564Z,5.50
2023-02-22T03:50:49.163Z,5.46
2023-02-22T03:53:18.580Z,5.38
2023-02-22T03:55:51.711Z,5.08
2023-02-22T03:58:22.994Z,4.70
2023-02-22T04:00:53.136Z,4.38
2023-02-22T04:03:21.600Z,4.31
2023-02-22T04:05:49.123Z,4.28
2023-02-22T04:08:16.622Z,4.27
2023-02-22T04:10:43.480Z,4.27
2023-02-22T04:13:10.738Z,4.33
2023-02-22T04:15:41.204Z,4.42
2023-02-22T04:18:11.426Z,4.47
2023-02-22T04:20:38.176Z,4.50
2023-02-22T04:23:09.945Z,4.60
2023-02-22T04:25:39.258Z,4.75
2023-02-22T04:28:11.156Z,4.92
2023-02-22T04:30:55.505Z,5.11
2023-02-22T04:33:23.392Z,5.25
2023-02-22T04:35:51.723Z,5.24
2023-02-22T04:38:18.543Z,5.21
2023-02-22T04:40:45.467Z,5.21
2023-02-22T04:43:12.186Z,5.14
2023-02-22T04:45:39.986Z,5.03
2023-02-22T04:48:07.940Z,4.88
2023-02-22T04:50:35.464Z,4.65
2023-02-22T04:53:03.918Z,4.53
2023-02-22T04:55:30.706Z,4.39
2023-02-22T04:57:57.703Z,4.21
2023-02-22T05:00:24.598Z,4.13
2023-02-22T05:02:56.051Z,4.06
2023-02-22T05:05:23.087Z,3.92
2023-02-22T05:07:50.384Z,3.84
2023-02-22T05:10:17.425Z,3.83
2023-02-22T05:12:44.233Z,3.84
2023-02-22T05:15:15.399Z,3.85
2023-02-22T05:17:42.090Z,3.76
2023-02-22T05:20:19.748Z,3.73
2023-02-22T05:22:46.495Z,3.67
2023-02-22T05:25:13.214Z,3.64
2023-02-22T05:27:39.949Z,3.62
2023-02-22T05:30:09.298Z,3.57
2023-02-22T05:32:35.986Z,3.55
2023-02-22T05:35:02.947Z,3.56
2023-02-22T05:37:29.595Z,3.55
2023-02-22T05:39:56.268Z,3.56
2023-02-22T05:42:23.518Z,3.49
2023-02-22T05:44:50.186Z,3.47
2023-02-22T05:47:16.848Z,3.40
2023-02-22T05:49:43.511Z,3.40
2023-02-22T05:52:10.193Z,3.37
2023-02-22T05:54:36.883Z,3.35
2023-02-22T05:57:03.690Z,3.35
2023-02-22T05:59:30.361Z,3.37
2023-02-22T06:01:57.093Z,3.29
2023-02-22T06:04:23.998Z,3.33
2023-02-22T06:06:50.673Z,3.32
2023-02-22T06:09:17.375Z,3.31
2023-02-22T06:11:44.029Z,3.27
2023-02-22T06:14:10.657Z,3.29
2023-02-22T06:16:37.353Z,3.32
2023-02-22T06:19:04.068Z,3.42
2023-02-22T06:21:30.854Z,3.40
2023-02-22T06:23:57.496Z,3.39
2023-02-22T06:26:24.156Z,3.41
2023-02-22T06:28:50.814Z,3.47
2023-02-22T06:31:17.819Z,3.52
2023-02-22T06:33:44.788Z,3.53
2023-02-22T06:36:11.578Z,3.57
2023-02-22T06:38:38.405Z,3.54
2023-02-22T06:41:05.268Z,3.59
2023-02-22T06:43:31.912Z,3.67
2023-02-22T06:45:58.599Z,3.77
2023-02-22T06:48:25.368Z,3.94
2023-02-22T06:50:52.066Z,4.11
2023-02-22T06:53:18.713Z,4.37
2023-02-22T06:55:45.345Z,4.83
2023-02-22T06:58:12.035Z,5.22
2023-02-22T07:00:38.780Z,5.55
2023-02-22T07:03:05.509Z,5.77
2023-02-22T07:05:32.345Z,5.90
2023-02-22T07:08:07.424Z,5.95
2023-02-22T07:10:36.201Z,6.08
2023-02-22T07:13:04.726Z,6.18
2023-02-22T07:15:33.051Z,6.40
2023-02-22T07:18:00.471Z,6.52
2023-02-22T07:20:29.461Z,6.61
2023-02-22T07:22:56.103Z,6.73
2023-02-22T07:25:23.895Z,6.74
2023-02-22T07:27:52.587Z,6.84
2023-02-22T07:30:25.284Z,6.77
2023-02-22T07:32:54.171Z,6.83
2023-02-22T07:35:29.965Z,7.08
2023-02-22T07:37:56.884Z,7.11
2023-02-22T07:40:25.564Z,7.02
2023-02-22T07:43:04.317Z,6.97
2023-02-22T07:45:34.327Z,7.18
2023-02-22T07:48:02.734Z,7.20
2023-02-22T07:50:31.378Z,7.22
2023-02-22T07:53:00.016Z,7.23
2023-02-22T07:55:29.032Z,7.30
2023-02-22T07:57:58.878Z,7.51
2023-02-22T08:00:27.721Z,7.63
2023-02-22T08:02:55.288Z,7.67
2023-02-22T08:05:24.476Z,7.74
2023-02-22T08:07:51.418Z,7.88
2023-02-22T08:10:20.244Z,8.17
2023-02-22T08:12:46.949Z,8.40
2023-02-22T08:15:28.723Z,8.75
2023-02-22T08:17:56.735Z,8.87
2023-02-22T08:20:24.501Z,9.19
2023-02-22T08:22:52.053Z,9.25
2023-02-22T08:25:20.932Z,9.15
2023-02-22T08:27:48.341Z,9.32
2023-02-22T08:30:18.349Z,9.35
2023-02-22T08:32:49.975Z,9.20
2023-02-22T08:35:18.736Z,9.36
2023-02-22T08:37:54.398Z,9.05
2023-02-22T08:40:23.437Z,9.16
2023-02-22T08:42:50.280Z,9.70
2023-02-22T08:45:17.276Z,10.11
2023-02-22T08:47:44.119Z,10.39
2023-02-22T08:50:17.626Z,10.72
2023-02-22T08:52:44.468Z,10.97
2023-02-22T08:55:11.166Z,11.34
2023-02-22T08:57:37.876Z,11.48
2023-02-22T09:00:05.893Z,11.63
2023-02-22T09:02:32.586Z,11.69
2023-02-22T09:04:59.263Z,11.96
2023-02-22T09:07:25.946Z,12.16
2023-02-22T09:09:52.601Z,12.48
2023-02-22T09:12:19.226Z,13.01
2023-02-22T09:14:45.930Z,13.18
2023-02-22T09:17:12.656Z,13.41
2023-02-22T09:19:39.368Z,13.45
2023-02-22T09:22:06.057Z,13.33
2023-02-22T09:24:32.744Z,13.07
2023-02-22T09:26:59.944Z,12.91
2023-02-22T09:29:27.775Z,12.46
2023-02-22T09:31:55.789Z,12.46
2023-02-22T09:34:29.606Z,12.68
2023-02-22T09:36:58.090Z,13.11
2023-02-22T09:39:25.357Z,13.63
2023-02-22T09:42:15.028Z,13.75
2023-02-22T09:44:44.731Z,13.54
2023-02-22T09:47:18.354Z,12.67
2023-02-22T09:49:58.723Z,12.06
2023-02-22T09:52:32.410Z,11.87
2023-02-22T09:55:19.696Z,11.83
2023-02-22T09:57:47.623Z,12.12
2023-02-22T10:00:20.176Z,12.61
2023-02-22T10:03:12.926Z,13.11
2023-02-22T10:05:42.921Z,13.59
2023-02-22T10:08:15.448Z,14.03
2023-02-22T10:10:47.015Z,14.19
2023-02-22T10:13:32.353Z,14.15
2023-02-22T10:15:58.944Z,13.95
2023-02-22T10:18:55.150Z,13.71
2023-02-22T10:21:33.738Z,13.75
2023-02-22T10:24:18.989Z,13.46
2023-02-22T10:26:46.965Z,13.44
2023-02-22T10:29:22.447Z,13.08
2023-02-22T10:31:56.807Z,13.11
2023-02-22T10:34:30.840Z,13.13
2023-02-22T10:37:19.021Z,12.73
2023-02-22T10:39:48.045Z,12.35
2023-02-22T10:42:15.812Z,12.61
2023-02-22T10:44:42.571Z,12.82
2023-02-22T10:47:12.483Z,12.87
2023-02-22T10:49:46.906Z,13.05
2023-02-22T10:52:27.879Z,13.43
2023-02-22T10:55:13.537Z,13.90
2023-02-22T10:57:44.353Z,13.85
2023-02-22T11:00:29.695Z,13.88
2023-02-22T11:02:59.944Z,13.77
2023-02-22T11:05:38.480Z,13.42
2023-02-22T11:08:23.783Z,13.35
2023-02-22T11:11:01.209Z,12.89
2023-02-22T11:13:38.917Z,12.80
2023-02-22T11:16:21.234Z,12.93
2023-02-22T11:18:47.971Z,12.95
2023-02-22T11:21:22.797Z,12.72
2023-02-22T11:23:50.491Z,12.66
2023-02-22T11:26:20.730Z,12.65
2023-02-22T11:28:56.214Z,12.70
2023-02-22T11:31:27.404Z,12.95
2023-02-22T11:34:00.198Z,13.16
2023-02-22T11:36:31.382Z,13.28
2023-02-22T11:39:00.820Z,12.98
2023-02-22T11:41:32.282Z,13.06
2023-02-22T11:44:23.923Z,13.36
2023-02-22T11:46:52.046Z,13.33
2023-02-22T11:49:20.103Z,13.38
2023-02-22T11:52:06.781Z,13.60
2023-02-22T11:54:58.563Z,13.42
2023-02-22T11:57:51.161Z,13.49
2023-02-22T12:00:43.527Z,13.50
2023-02-22T12:03:28.634Z,13.47
2023-02-22T12:06:20.295Z,13.19
2023-02-22T12:08:46.945Z,13.13
2023-02-22T12:11:26.468Z,13.12
2023-02-22T12:14:37.933Z,13.08
2023-02-22T12:17:59.315Z,12.96
2023-02-22T12:20:45.574Z,12.82
2023-02-22T12:23:12.959Z,12.87
2023-02-22T12:25:48.631Z,12.81
2023-02-22T12:28:25.410Z,13.01
2023-02-22T12:31:23.613Z,13.17
2023-02-22T12:34:11.866Z,13.35
2023-02-22T12:36:47.028Z,13.34
2023-02-22T12:39:22.900Z,13.38
2023-02-22T12:41:52.917Z,13.19
2023-02-22T12:44:30.444Z,13.08
2023-02-22T12:47:00.079Z,12.76
2023-02-22T12:49:52.088Z,12.82
2023-02-22T12:52:44.250Z,12.76
2023-02-22T12:55:20.416Z,12.72
2023-02-22T12:58:21.817Z,12.69
2023-02-22T13:01:05.162Z,12.91
2023-02-22T13:03:39.962Z,12.93
2023-02-22T13:06:09.609Z,12.95
2023-02-22T13:08:49.817Z,12.91
2023-02-22T13:11:41.659Z,12.67
2023-02-22T13:14:30.184Z,12.74
2023-02-22T13:17:10.099Z,12.78
2023-02-22T13:19:40.294Z,12.51
2023-02-22T13:22:13.200Z,12.49
2023-02-22T13:25:15.113Z,12.36
2023-02-22T13:27:55.337Z,12.23
2023-02-22T13:30:37.834Z,12.07
2023-02-22T13:33:28.997Z,12.17
2023-02-22T13:36:31.150Z,12.14
2023-02-22T13:39:12.811Z,12.14
2023-02-22T13:41:48.504Z,12.17
2023-02-22T13:44:47.780Z,12.18
2023-02-22T13:47:26.783Z,12.15
2023-02-22T13:50:08.413Z,11.94
2023-02-22T13:52:40.071Z,11.91
2023-02-22T13:55:20.561Z,11.82
2023-02-22T13:57:50.901Z,11.88
2023-02-22T14:00:23.623Z,11.89
2023-02-22T14:03:01.464Z,11.81
2023-02-22T14:05:44.868Z,11.76
2023-02-22T14:08:17.764Z,11.64
2023-02-22T14:10:45.527Z,11.53
2023-02-22T14:13:13.886Z,11.38
2023-02-22T14:16:02.661Z,11.46
2023-02-22T14:18:43.298Z,11.43
2023-02-22T14:21:20.575Z,11.45
2023-02-22T14:23:51.786Z,11.40
2023-02-22T14:26:32.605Z,11.25
2023-02-22T14:29:02.833Z,11.26
2023-02-22T14:31:54.622Z,11.26
2023-02-22T14:34:58.119Z,11.24
2023-02-22T14:37:26.410Z,11.21
2023-02-22T14:40:18.432Z,11.08
2023-02-22T14:42:51.026Z,10.98
2023-02-22T14:45:29.882Z,10.97
2023-02-22T14:48:24.961Z,11.08
2023-02-22T14:51:05.911Z,11.14
2023-02-22T14:53:49.690Z,11.25
2023-02-22T14:56:25.825Z,11.41
2023-02-22T14:58:52.438Z,11.60
2023-02-22T15:01:21.986Z,11.75
2023-02-22T15:03:56.029Z,11.74
2023-02-22T15:06:31.510Z,11.76
2023-02-22T15:09:29.786Z,11.87
2023-02-22T15:12:04.088Z,11.82
2023-02-22T15:14:37.709Z,11.83
2023-02-22T15:17:09.374Z,11.69
2023-02-22T15:19:41.725Z,11.63
2023-02-22T15:22:23.066Z,11.62
2023-02-22T15:25:01.599Z,11.64
2023-02-22T15:27:29.260Z,11.60
2023-02-22T15:30:05.868Z,11.59
2023-02-22T15:32:49.969Z,11.49
2023-02-22T15:35:28.090Z,11.53
2023-02-22T15:38:01.866Z,11.58
2023-02-22T15:40:35.021Z,11.50
2023-02-22T15:43:04.829Z,11.50
2023-02-22T15:45:34.475Z,11.51
2023-02-22T15:48:01.835Z,11.55
2023-02-22T15:50:34.551Z,11.51
2023-02-22T15:53:02.681Z,11.48
2023-02-22T15:55:33.717Z,11.48
2023-02-22T15:58:08.341Z,11.42
2023-02-22T16:00:38.151Z,11.46
2023-02-22T16:03:19.610Z,11.28
2023-02-22T16:05:50.704Z,11.39
2023-02-22T16:08:20.508Z,11.39
2023-02-22T16:11:01.343Z,11.39
2023-02-22T16:13:33.058Z,11.39
2023-02-22T16:16:05.927Z,11.35
2023-02-22T16:18:36.244Z,11.30
2023-02-22T16:21:11.952Z,11.28
2023-02-22T16:23:49.202Z,11.27
2023-02-22T16:26:36.266Z,11.19
2023-02-22T16:29:07.813Z,11.11
2023-02-22T16:31:39.818Z,11.08
2023-02-22T16:34:08.092Z,10.92
2023-02-22T16:36:43.965Z,10.79
2023-02-22T16:39:24.350Z,10.59
2023-02-22T16:41:52.044Z,10.50
2023-02-22T16:44:18.866Z,10.41
2023-02-22T16:46:45.562Z,10.39
2023-02-22T16:49:13.764Z,10.28
2023-02-22T16:51:47.485Z,10.28
2023-02-22T16:54:23.148Z,10.23
2023-02-22T16:56:49.857Z,10.15
2023-02-22T16:59:17.247Z,10.16
2023-02-22T17:01:44.205Z,10.11
2023-02-22T17:04:21.060Z,10.04
2023-02-22T17:06:48.301Z,9.97
2023-02-22T17:09:15.651Z,9.97
2023-02-22T17:11:43.403Z,9.94
2023-02-22T17:14:12.540Z,9.87
2023-02-22T17:16:39.211Z,9.85
2023-02-22T17:19:15.424Z,9.80
2023-02-22T17:21:42.142Z,9.77
2023-02-22T17:24:12.656Z,9.78
2023-02-22T17:26:39.404Z,9.71
2023-02-22T17:29:06.208Z,9.77
2023-02-22T17:31:33.081Z,9.75
2023-02-22T17:34:04.907Z,9.78
2023-02-22T17:36:33.659Z,9.77
2023-02-22T17:39:00.885Z,9.71
2023-02-22T17:41:27.699Z,9.71
2023-02-22T17:43:54.492Z,9.70
2023-02-22T17:46:21.312Z,9.52
2023-02-22T17:48:54.117Z,9.55
2023-02-22T17:51:23.648Z,9.53
2023-02-22T17:53:50.518Z,9.48
2023-02-22T17:56:19.069Z,9.42
2023-02-22T17:58:53.266Z,9.41
2023-02-22T18:01:24.950Z,9.42
2023-02-22T18:03:55.604Z,9.28
2023-02-22T18:06:27.187Z,9.35
2023-02-22T18:08:56.682Z,9.28
2023-02-22T18:11:26.627Z,9.23
2023-02-22T18:13:55.356Z,9.19
2023-02-22T18:16:23.563Z,9.16
2023-02-22T18:18:50.282Z,9.14
2023-02-22T18:21:17.129Z,9.12
2023-02-22T18:23:47.121Z,9.06
2023-02-22T18:26:19.720Z,9.10
2023-02-22T18:28:48.773Z,9.07
2023-02-22T18:31:18.160Z,9.01
2023-02-22T18:33:47.074Z,8.99
2023-02-22T18:36:15.622Z,8.98
2023-02-22T18:38:43.674Z,8.90
2023-02-22T18:41:15.564Z,8.86
2023-02-22T18:43:42.874Z,8.78
2023-02-22T18:46:16.302Z,8.82
2023-02-22T18:48:43.952Z,8.82
2023-02-22T18:51:13.857Z,8.78
2023-02-22T18:53:46.938Z,8.78
2023-02-22T18:56:17.926Z,8.77
2023-02-22T18:58:45.147Z,8.70
2023-02-22T19:01:17.515Z,8.71
2023-02-22T19:03:47.184Z,8.66
2023-02-22T19:06:16.169Z,8.64
2023-02-22T19:08:44.097Z,8.67
2023-02-22T19:11:19.135Z,8.67
2023-02-22T19:13:51.824Z,8.52
2023-02-22T19:16:20.886Z,8.57
2023-02-22T19:18:49.828Z,8.54
2023-02-22T19:21:16.827Z,8.46
2023-02-22T19:23:48.018Z,8.42
2023-02-22T19:26:20.357Z,8.42
2023-02-22T19:28:48.164Z,8.42
2023-02-22T19:31:19.819Z,8.39
2023-02-22T19:33:51.243Z,8.33
2023-02-22T19:36:19.937Z,8.24
2023-02-22T19:38:46.946Z,8.23
2023-02-22T19:41:19.538Z,8.13
2023-02-22T19:43:48.626Z,8.08
2023-02-22T19:46:19.126Z,8.05
2023-02-22T19:48:45.982Z,7.89
2023-02-22T19:51:14.642Z,7.83
2023-02-22T19:53:43.104Z,7.81
2023-02-22T19:56:16.307Z,7.79
2023-02-22T19:58:45.062Z,7.75
2023-02-22T20:01:18.900Z,7.72
2023-02-22T20:03:46.216Z,7.64
2023-02-22T20:06:16.628Z,7.64
2023-02-22T20:08:43.301Z,7.60
2023-02-22T20:11:11.029Z,7.58
2023-02-22T20:13:38.851Z,7.54
2023-02-22T20:16:05.991Z,7.58
2023-02-22T20:18:32.837Z,7.57
2023-02-22T20:20:59.724Z,7.57
2023-02-22T20:23:26.414Z,7.58
2023-02-22T20:25:57.183Z,7.56
2023-02-22T20:28:24.321Z,7.59
2023-02-22T20:30:51.798Z,7.55
2023-02-22T20:33:21.869Z,7.51
2023-02-22T20:35:48.651Z,7.53
2023-02-22T20:38:15.355Z,7.57
2023-02-22T20:40:42.660Z,7.60
2023-02-22T20:43:10.177Z,7.53
2023-02-22T20:45:38.068Z,7.49
2023-02-22T20:48:05.734Z,7.57
2023-02-22T20:50:34.683Z,7.58
2023-02-22T20:53:01.287Z,7.58
2023-02-22T20:55:28.001Z,7.60
2023-02-22T20:57:54.692Z,7.60
2023-02-22T21:00:21.432Z,7.57
2023-02-22T21:02:48.200Z,7.55
2023-02-22T21:05:14.849Z,7.64
2023-02-22T21:07:41.608Z,7.62
2023-02-22T21:10:08.556Z,7.63
2023-02-22T21:12:35.464Z,7.59
2023-02-22T21:15:02.298Z,7.61
2023-02-22T21:17:29.065Z,7.56
2023-02-22T21:19:59.153Z,7.60
2023-02-22T21:22:25.819Z,7.60
2023-02-22T21:24:53.267Z,7.62
2023-02-22T21:27:20.000Z,7.50
2023-02-22T21:29:46.857Z,7.61
2023-02-22T21:32:13.928Z,7.61
2023-02-22T21:34:40.932Z,7.55
2023-02-22T21:37:08.394Z,7.55
2023-02-22T21:39:35.545Z,7.48
2023-02-22T21:42:02.778Z,7.49
2023-02-22T21:44:29.846Z,7.52
2023-02-22T21:46:56.680Z,7.35
2023-02-22T21:49:23.653Z,7.38
2023-02-22T21:51:51.770Z,7.25
2023-02-22T21:54:18.876Z,7.18
2023-02-22T21:56:45.722Z,7.25
2023-02-22T21:59:15.649Z,7.20
2023-02-22T22:01:50.639Z,7.21
2023-02-22T22:04:19.750Z,7.08
2023-02-22T22:06:54.401Z,7.13
2023-02-22T22:09:23.553Z,7.15
2023-02-22T22:12:05.759Z,7.15
2023-02-22T22:14:34.123Z,7.07
2023-02-22T22:17:01.185Z,7.09
2023-02-22T22:19:30.127Z,7.07
2023-02-22T22:21:58.366Z,7.10
2023-02-22T22:24:26.008Z,6.99
2023-02-22T22:26:56.050Z,7.05
2023-02-22T22:29:24.630Z,7.05
2023-02-22T22:31:52.031Z,7.03
2023-02-22T22:34:19.586Z,7.11
2023-02-22T22:36:46.519Z,7.12
2023-02-22T22:39:13.267Z,7.08
2023-02-22T22:41:41.582Z,7.06
2023-02-22T22:44:09.911Z,7.09
2023-02-22T22:46:41.114Z,7.08
2023-02-22T22:49:10.376Z,7.08
2023-02-22T22:51:38.116Z,7.07
2023-02-22T22:54:09.524Z,6.96
2023-02-22T22:56:38.128Z,7.03
2023-02-22T22:59:08.107Z,7.03
2023-02-22T23:01:40.745Z,7.05
2023-02-22T23:04:10.341Z,7.04
2023-02-22T23:06:40.140Z,6.98
2023-02-22T23:09:11.901Z,7.01
2023-02-22T23:11:44.736Z,7.00
2023-02-22T23:14:26.065Z,7.01
2023-02-22T23:17:00.018Z,6.95
2023-02-22T23:19:27.001Z,7.00
2023-02-22T23:21:53.651Z,7.01
2023-02-22T23:24:21.268Z,7.05
2023-02-22T23:26:51.432Z,7.03
2023-02-22T23:29:21.595Z,7.04
2023-02-22T23:31:49.847Z,7.09
2023-02-22T23:34:18.834Z,7.08
2023-02-22T23:36:45.701Z,7.05
2023-02-22T23:39:14.254Z,7.02
2023-02-22T23:41:42.508Z,6.96
2023-02-22T23:44:13.350Z,6.95
2023-02-22T23:46:41.228Z,6.94
2023-02-22T23:49:10.030Z,6.96
2023-02-22T23:51:42.945Z,6.96
2023-02-22T23:54:12.653Z,6.92
2023-02-22T23:56:40.506Z,6.90
2023-02-22T23:59:12.620Z,6.81
